createdAt,value
2022-08-17T00:00:42.926Z,47.94
2022-08-17T00:03:10.448Z,47.64
2022-08-17T00:05:48.775Z,47.29
2022-08-17T00:08:23.927Z,47.39
2022-08-17T00:10:53.139Z,47.72
2022-08-17T00:13:27.506Z,46.71
2022-08-17T00:16:03.960Z,46.29
2022-08-17T00:19:06.891Z,46.49
2022-08-17T00:21:23.751Z,46.07
2022-08-17T00:23:54.340Z,46.26
2022-08-17T00:26:43.742Z,46.78
2022-08-17T00:29:14.905Z,46.85
2022-08-17T00:31:48.750Z,46.63
2022-08-17T00:34:16.879Z,46.64
2022-08-17T00:36:44.373Z,46.78
2022-08-17T00:39:11.945Z,46.50
2022-08-17T00:41:42.286Z,46.91
2022-08-17T00:44:12.116Z,46.59
2022-08-17T00:46:43.710Z,46.83
2022-08-17T00:49:14.062Z,46.51
2022-08-17T00:51:56.827Z,46.57
2022-08-17T00:54:33.513Z,46.33
2022-08-17T00:57:35.082Z,46.57
2022-08-17T01:00:21.397Z,46.85
2022-08-17T01:02:49.654Z,47.43
2022-08-17T01:05:23.806Z,47.40
2022-08-17T01:07:53.822Z,47.19
2022-08-17T01:10:59.918Z,47.29
2022-08-17T01:13:27.764Z,47.66
2022-08-17T01:16:05.995Z,47.82
2022-08-17T01:18:34.508Z,47.50
2022-08-17T01:21:10.962Z,47.89
2022-08-17T01:23:38.503Z,47.95
2022-08-17T01:26:06.618Z,47.67
2022-08-17T01:28:54.328Z,47.78
2022-08-17T01:31:30.293Z,47.41
2022-08-17T01:34:02.732Z,48.29
2022-08-17T01:36:30.903Z,48.21
2022-08-17T01:38:58.521Z,47.76
2022-08-17T01:41:27.254Z,47.84
2022-08-17T01:44:01.938Z,47.67
2022-08-17T01:46:36.296Z,47.87
2022-08-17T01:49:11.196Z,47.80
2022-08-17T01:51:39.353Z,47.72
2022-08-17T01:54:13.489Z,48.15
2022-08-17T01:56:47.144Z,47.35
2022-08-17T01:59:18.316Z,47.92
2022-08-17T02:01:47.003Z,47.68
2022-08-17T02:04:15.063Z,47.67
2022-08-17T02:06:53.618Z,47.60
2022-08-17T02:09:25.357Z,47.39
2022-08-17T02:11:56.356Z,47.38
2022-08-17T02:14:25.861Z,46.66
2022-08-17T02:16:53.857Z,46.86
2022-08-17T02:19:22.475Z,47.02
2022-08-17T02:21:52.766Z,46.94
2022-08-17T02:24:58.307Z,47.38
2022-08-17T02:27:27.659Z,46.97
2022-08-17T02:29:55.156Z,46.87
2022-08-17T02:32:27.609Z,47.36
2022-08-17T02:35:01.675Z,46.74
2022-08-17T02:37:30.397Z,46.67
2022-08-17T02:39:59.925Z,46.70
2022-08-17T02:42:36.538Z,47.03
2022-08-17T02:45:11.223Z,47.16
2022-08-17T02:47:38.866Z,47.40
2022-08-17T02:50:09.895Z,47.42
2022-08-17T02:52:43.635Z,47.87
2022-08-17T02:55:34.305Z,47.12
2022-08-17T02:58:03.653Z,47.12
2022-08-17T03:00:41.106Z,47.31
2022-08-17T03:03:10.962Z,47.65
2022-08-17T03:05:39.353Z,47.24
2022-08-17T03:08:11.723Z,47.31
2022-08-17T03:10:42.882Z,47.96
2022-08-17T03:13:12.913Z,47.72
2022-08-17T03:15:43.966Z,47.25
2022-08-17T03:18:25.362Z,47.47
2022-08-17T03:20:57.215Z,47.57
2022-08-17T03:23:26.070Z,47.70
2022-08-17T03:25:56.007Z,47.71
2022-08-17T03:28:25.132Z,47.75
2022-08-17T03:30:53.001Z,47.26
2022-08-17T03:33:20.841Z,47.53
2022-08-17T03:35:48.746Z,47.76
2022-08-17T03:38:17.235Z,47.27
2022-08-17T03:40:56.971Z,47.39
2022-08-17T03:43:32.827Z,47.43
2022-08-17T03:46:34.778Z,47.34
2022-08-17T03:49:25.341Z,47.58
2022-08-17T03:52:13.181Z,47.54
2022-08-17T03:55:01.160Z,47.46
2022-08-17T03:57:30.203Z,47.51
2022-08-17T03:59:58.102Z,48.15
2022-08-17T04:02:30.329Z,48.15
2022-08-17T04:04:58.731Z,48.24
2022-08-17T04:07:30.789Z,48.37
2022-08-17T04:09:59.513Z,48.36
2022-08-17T04:12:31.700Z,48.87
2022-08-17T04:14:59.822Z,48.62
2022-08-17T04:17:29.704Z,49.06
2022-08-17T04:19:58.142Z,49.16
2022-08-17T04:22:32.622Z,49.17
2022-08-17T04:25:18.625Z,49.29
2022-08-17T04:27:46.408Z,48.99
2022-08-17T04:30:15.015Z,48.99
2022-08-17T04:33:07.332Z,49.25
2022-08-17T04:35:45.804Z,49.12
2022-08-17T04:38:17.992Z,48.93
2022-08-17T04:41:05.558Z,49.25
2022-08-17T04:43:35.132Z,49.73
2022-08-17T04:46:11.340Z,49.53
2022-08-17T04:48:49.095Z,49.47
2022-08-17T04:51:24.314Z,48.98
2022-08-17T04:53:59.564Z,49.05
2022-08-17T04:56:46.653Z,49.05
2022-08-17T04:59:18.910Z,49.30
2022-08-17T05:01:55.623Z,48.55
2022-08-17T05:04:34.489Z,48.71
2022-08-17T05:07:04.649Z,48.37
2022-08-17T05:09:32.647Z,48.61
2022-08-17T05:12:04.058Z,48.66
2022-08-17T05:14:32.736Z,49.33
2022-08-17T05:17:06.997Z,49.40
2022-08-17T05:19:37.397Z,49.50
2022-08-17T05:22:06.220Z,49.57
2022-08-17T05:24:42.716Z,49.23
2022-08-17T05:27:18.848Z,49.26
2022-08-17T05:29:46.692Z,49.18
2022-08-17T05:32:37.920Z,48.51
2022-08-17T05:35:02.999Z,48.75
2022-08-17T05:37:30.461Z,49.00
2022-08-17T05:39:58.012Z,49.17
2022-08-17T05:42:25.743Z,49.29
2022-08-17T05:44:53.193Z,49.39
2022-08-17T05:47:23.010Z,49.33
2022-08-17T05:49:50.889Z,48.79
2022-08-17T05:52:32.595Z,48.70
2022-08-17T05:55:18.147Z,49.16
2022-08-17T05:58:16.176Z,48.91
2022-08-17T06:00:55.948Z,48.70
2022-08-17T06:03:35.112Z,48.44
2022-08-17T06:06:21.182Z,48.36
2022-08-17T06:09:33.620Z,48.95
2022-08-17T06:12:20.091Z,48.93
2022-08-17T06:15:12.778Z,48.76
2022-08-17T06:17:42.380Z,48.75
2022-08-17T06:20:15.745Z,48.86
2022-08-17T06:22:52.164Z,49.41
2022-08-17T06:25:37.951Z,49.60
2022-08-17T06:28:14.818Z,50.28
2022-08-17T06:31:00.574Z,50.08
2022-08-17T06:33:37.509Z,50.33
2022-08-17T06:36:48.319Z,50.60
2022-08-17T06:40:13.436Z,51.08
2022-08-17T06:43:05.792Z,51.20
2022-08-17T06:46:08.303Z,50.87
2022-08-17T06:48:56.766Z,51.26
2022-08-17T06:51:40.424Z,51.39
2022-08-17T06:54:14.888Z,51.76
2022-08-17T06:56:55.444Z,51.50
2022-08-17T06:59:36.271Z,51.41
2022-08-17T07:03:02.491Z,52.19
2022-08-17T07:05:52.804Z,51.19
2022-08-17T07:08:35.180Z,51.70
2022-08-17T07:11:22.151Z,52.48
2022-08-17T07:14:37.797Z,52.06
2022-08-17T07:17:18.367Z,52.54
2022-08-17T07:19:50.234Z,52.55
2022-08-17T07:22:54.803Z,51.52
2022-08-17T07:25:24.241Z,51.86
2022-08-17T07:27:55.990Z,51.33
2022-08-17T07:30:46.930Z,51.59
2022-08-17T07:33:30.532Z,50.95
2022-08-17T07:35:59.381Z,50.24
2022-08-17T07:38:32.946Z,50.52
2022-08-17T07:41:10.025Z,50.11
2022-08-17T07:43:40.862Z,50.24
2022-08-17T07:46:40.251Z,49.79
2022-08-17T07:49:11.210Z,49.60
2022-08-17T07:51:45.722Z,49.41
2022-08-17T07:54:17.307Z,49.26
2022-08-17T07:56:57.596Z,48.13
2022-08-17T07:59:36.865Z,48.21
2022-08-17T08:02:34.312Z,47.93
2022-08-17T08:05:44.273Z,48.30
2022-08-17T08:08:25.663Z,48.73
2022-08-17T08:11:28.235Z,48.41
2022-08-17T08:13:57.368Z,48.38
2022-08-17T08:16:29.767Z,48.10
2022-08-17T08:19:01.404Z,47.60
2022-08-17T08:21:33.522Z,48.12
2022-08-17T08:24:56.838Z,48.79
2022-08-17T08:27:31.509Z,47.36
2022-08-17T08:30:15.138Z,47.16
2022-08-17T08:33:39.816Z,46.82
2022-08-17T08:37:17.151Z,46.19
2022-08-17T08:40:30.050Z,46.10
2022-08-17T08:43:36.261Z,45.91
2022-08-17T08:46:27.839Z,46.34
2022-08-17T08:49:45.107Z,44.86
2022-08-17T08:52:42.687Z,45.08
2022-08-17T08:55:42.975Z,44.50
2022-08-17T08:58:32.198Z,43.83
2022-08-17T09:01:40.828Z,44.05
2022-08-17T09:05:14.173Z,44.02
2022-08-17T09:08:12.696Z,42.85
2022-08-17T09:32:59.928Z,41.02
2022-08-17T09:35:37.437Z,41.20
2022-08-17T09:39:14.984Z,41.08
2022-08-17T09:42:24.255Z,41.02
2022-08-17T09:45:52.260Z,40.34
2022-08-17T09:48:27.657Z,38.63
2022-08-17T09:51:13.646Z,39.77
2022-08-17T09:53:44.547Z,38.49
2022-08-17T09:56:31.651Z,38.80
2022-08-17T09:59:38.212Z,38.49
2022-08-17T10:02:54.532Z,37.59
2022-08-17T10:05:46.708Z,38.03
2022-08-17T10:08:34.820Z,37.18
2022-08-17T10:11:54.282Z,37.29
2022-08-17T10:14:43.810Z,38.10
2022-08-17T10:17:42.390Z,36.96
2022-08-17T10:20:14.148Z,37.03
2022-08-17T10:23:13.811Z,37.47
2022-08-17T10:26:04.960Z,37.28
2022-08-17T10:29:10.422Z,36.54
2022-08-17T10:31:53.312Z,36.31
2022-08-17T10:34:29.910Z,36.40
2022-08-17T10:37:42.332Z,36.40
2022-08-17T10:40:47.582Z,36.39
2022-08-17T10:44:36.626Z,36.39
2022-08-17T10:47:09.023Z,36.91
2022-08-17T10:49:47.836Z,36.34
2022-08-17T10:52:27.856Z,35.68
2022-08-17T10:54:58.733Z,35.57
2022-08-17T10:57:40.110Z,35.59
2022-08-17T11:00:35.221Z,35.46
2022-08-17T11:03:15.001Z,35.31
2022-08-17T11:06:12.772Z,35.13
2022-08-17T11:09:24.809Z,35.14
2022-08-17T11:12:26.719Z,34.54
2022-08-17T11:15:45.968Z,33.71
2022-08-17T11:18:53.556Z,31.95
2022-08-17T11:21:32.206Z,32.30
2022-08-17T11:24:18.578Z,31.95
2022-08-17T11:27:24.866Z,31.56
2022-08-17T11:30:07.393Z,31.43
2022-08-17T11:32:37.499Z,31.19
2022-08-17T11:35:23.378Z,30.97
2022-08-17T11:38:34.967Z,31.67
2022-08-17T11:41:20.327Z,31.47
2022-08-17T11:44:22.023Z,30.74
2022-08-17T11:48:16.138Z,30.83
2022-08-17T11:51:24.252Z,29.89
2022-08-17T11:54:14.755Z,29.40
2022-08-17T11:56:51.364Z,30.48
2022-08-17T11:59:34.517Z,29.38
2022-08-17T12:02:27.608Z,29.26
2022-08-17T12:05:16.909Z,29.43
2022-08-17T12:07:56.532Z,29.44
2022-08-17T12:10:32.212Z,29.29
2022-08-17T12:13:15.748Z,29.31
2022-08-17T12:15:50.172Z,30.16
2022-08-17T12:18:41.810Z,29.06
2022-08-17T12:21:46.330Z,28.56
2022-08-17T12:24:41.252Z,27.99
2022-08-17T12:27:13.243Z,27.56
2022-08-17T12:29:45.178Z,27.62
2022-08-17T12:32:20.537Z,27.32
2022-08-17T12:34:51.140Z,27.41
2022-08-17T12:37:24.965Z,26.95
2022-08-17T12:40:27.080Z,26.79
2022-08-17T12:43:02.435Z,27.19
2022-08-17T12:45:41.849Z,26.34
2022-08-17T12:48:13.721Z,27.17
2022-08-17T12:50:45.818Z,25.73
2022-08-17T12:53:23.757Z,25.95
2022-08-17T12:55:52.199Z,26.63
2022-08-17T12:58:25.050Z,26.27
2022-08-17T13:01:01.045Z,26.63
2022-08-17T13:03:36.319Z,26.47
2022-08-17T13:06:09.601Z,26.29
2022-08-17T13:08:42.847Z,26.26
2022-08-17T13:11:22.489Z,26.91
2022-08-17T13:13:55.074Z,26.59
2022-08-17T13:16:27.576Z,26.00
2022-08-17T13:19:13.114Z,26.81
2022-08-17T13:21:49.083Z,26.80
2022-08-17T13:24:31.048Z,27.02
2022-08-17T13:27:13.460Z,27.20
2022-08-17T13:29:53.712Z,26.99
2022-08-17T13:32:33.550Z,27.60
2022-08-17T13:35:29.766Z,27.74
2022-08-17T13:38:30.651Z,27.86
2022-08-17T13:40:58.294Z,29.63
2022-08-17T13:43:50.623Z,28.68
2022-08-17T13:46:28.590Z,28.67
2022-08-17T13:49:09.754Z,28.97
2022-08-17T13:51:44.926Z,28.51
2022-08-17T13:54:36.945Z,28.67
2022-08-17T13:57:25.198Z,27.65
2022-08-17T14:00:12.623Z,27.44
2022-08-17T14:02:40.191Z,27.52
2022-08-17T14:05:08.222Z,27.33
2022-08-17T14:07:40.325Z,27.71
2022-08-17T14:10:18.398Z,27.49
2022-08-17T14:12:46.404Z,27.28
2022-08-17T14:15:18.143Z,26.93
2022-08-17T14:17:46.216Z,26.78
2022-08-17T14:20:16.090Z,26.16
2022-08-17T14:22:50.634Z,25.96
2022-08-17T14:25:27.687Z,26.33
2022-08-17T14:27:55.947Z,26.62
2022-08-17T14:30:29.024Z,26.34
2022-08-17T14:32:58.797Z,25.69
2022-08-17T14:35:28.245Z,25.65
2022-08-17T14:37:56.400Z,26.13
2022-08-17T14:40:25.534Z,25.74
2022-08-17T14:42:56.530Z,25.28
2022-08-17T14:45:29.871Z,24.95
2022-08-17T14:48:04.544Z,23.71
2022-08-17T14:50:35.813Z,23.30
2022-08-17T14:53:06.566Z,22.98
2022-08-17T14:55:34.642Z,23.46
2022-08-17T14:58:04.071Z,23.06
2022-08-17T15:00:33.190Z,23.41
2022-08-17T15:03:01.551Z,23.18
2022-08-17T15:05:35.437Z,22.96
2022-08-17T15:08:05.615Z,22.58
2022-08-17T15:10:33.590Z,23.10
2022-08-17T15:13:01.680Z,23.28
2022-08-17T15:15:29.949Z,22.48
2022-08-17T15:17:58.248Z,23.00
2022-08-17T15:20:29.928Z,21.88
2022-08-17T15:22:59.350Z,22.25
2022-08-17T15:25:32.220Z,22.14
2022-08-17T15:28:01.256Z,21.84
2022-08-17T15:30:30.152Z,22.51
2022-08-17T15:33:02.786Z,21.92
2022-08-17T15:35:33.985Z,21.23
2022-08-17T15:38:11.764Z,21.25
2022-08-17T15:40:46.420Z,21.12
2022-08-17T15:43:27.718Z,21.54
2022-08-17T15:46:03.080Z,21.54
2022-08-17T15:48:43.394Z,21.29
2022-08-17T15:51:24.989Z,21.04
2022-08-17T15:54:19.211Z,21.40
2022-08-17T15:56:50.831Z,21.24
2022-08-17T15:59:19.460Z,22.48
2022-08-17T16:03:12.973Z,21.68
2022-08-17T16:04:34.955Z,21.77
2022-08-17T16:07:04.532Z,22.36
2022-08-17T16:09:32.038Z,21.87
2022-08-17T16:12:10.392Z,22.11
2022-08-17T16:14:38.117Z,22.81
2022-08-17T16:17:39.830Z,23.13
2022-08-17T16:19:53.840Z,23.95
2022-08-17T16:22:41.149Z,24.08
2022-08-17T16:25:16.816Z,24.84
2022-08-17T16:27:46.700Z,25.16
2022-08-17T16:30:17.523Z,25.95
2022-08-17T16:32:47.849Z,26.62
2022-08-17T16:35:18.286Z,27.17
2022-08-17T16:37:46.854Z,27.49
2022-08-17T16:40:18.159Z,28.36
2022-08-17T16:42:48.572Z,28.59
2022-08-17T16:45:29.284Z,28.80
2022-08-17T16:47:59.207Z,29.50
2022-08-17T16:50:27.399Z,28.97
2022-08-17T16:53:06.537Z,28.82
2022-08-17T16:55:38.022Z,29.37
2022-08-17T16:58:08.803Z,29.26
2022-08-17T17:00:37.820Z,29.08
2022-08-17T17:03:20.560Z,29.13
2022-08-17T17:06:14.197Z,29.04
2022-08-17T17:09:06.975Z,28.85
2022-08-17T17:11:46.414Z,29.43
2022-08-17T17:14:46.249Z,29.43
2022-08-17T17:17:37.201Z,29.65
2022-08-17T17:20:13.776Z,29.89
2022-08-17T17:22:59.144Z,29.78
2022-08-17T17:25:59.935Z,30.30
2022-08-17T17:29:00.837Z,30.35
2022-08-17T17:31:38.348Z,30.57
2022-08-17T17:34:10.930Z,30.60
2022-08-17T17:36:56.880Z,31.09
2022-08-17T17:39:55.823Z,31.05
2022-08-17T17:42:31.501Z,31.56
2022-08-17T17:45:20.742Z,31.85
2022-08-17T17:47:48.601Z,31.99
2022-08-17T17:50:21.552Z,31.29
2022-08-17T17:53:17.208Z,31.22
2022-08-17T17:56:43.588Z,31.36
2022-08-17T17:59:36.684Z,31.47
2022-08-17T18:02:57.980Z,33.03
2022-08-17T18:05:55.516Z,31.84
2022-08-17T18:08:49.265Z,31.92
2022-08-17T18:11:25.152Z,32.50
2022-08-17T18:14:33.149Z,32.58
2022-08-17T18:17:02.251Z,33.04
2022-08-17T18:19:31.322Z,32.98
2022-08-17T18:22:17.138Z,33.83
2022-08-17T18:24:54.074Z,33.49
2022-08-17T18:27:51.301Z,34.20
2022-08-17T18:30:19.476Z,33.99
2022-08-17T18:32:47.538Z,34.40
2022-08-17T18:35:14.971Z,33.97
2022-08-17T18:37:58.597Z,33.95
2022-08-17T18:40:32.966Z,33.45
2022-08-17T18:43:13.349Z,34.02
2022-08-17T18:45:54.494Z,33.96
2022-08-17T18:48:49.660Z,33.72
2022-08-17T18:51:42.117Z,34.00
2022-08-17T18:54:25.482Z,34.13
2022-08-17T18:56:56.928Z,34.41
2022-08-17T18:59:48.261Z,33.99
2022-08-17T19:02:38.676Z,33.74
2022-08-17T19:05:39.368Z,34.04
2022-08-17T19:08:29.751Z,33.79
2022-08-17T19:11:28.767Z,34.04
2022-08-17T19:14:11.976Z,34.33
2022-08-17T19:16:57.893Z,34.24
2022-08-17T19:20:02.360Z,34.31
2022-08-17T19:22:50.203Z,34.41
2022-08-17T19:25:29.334Z,34.63
2022-08-17T19:28:34.915Z,34.22
2022-08-17T19:31:16.693Z,34.48
2022-08-17T19:33:47.939Z,34.45
2022-08-17T19:36:21.619Z,34.46
2022-08-17T19:39:38.047Z,34.82
2022-08-17T19:43:06.591Z,34.91
2022-08-17T19:46:01.398Z,34.67
2022-08-17T19:49:34.476Z,35.08
2022-08-17T19:58:51.428Z,35.56
2022-08-17T20:01:54.793Z,36.02
2022-08-17T20:04:31.787Z,35.91
2022-08-17T20:07:11.239Z,35.87
2022-08-17T20:09:46.551Z,36.29
2022-08-17T20:12:25.963Z,36.58
2022-08-17T20:15:04.457Z,36.69
2022-08-17T20:17:39.325Z,36.97
2022-08-17T20:20:39.525Z,36.81
2022-08-17T20:23:55.967Z,36.74
2022-08-17T20:26:55.440Z,36.66
2022-08-17T20:29:55.355Z,37.15
2022-08-17T20:32:31.194Z,37.13
2022-08-17T20:35:39.568Z,37.10
2022-08-17T20:38:46.166Z,37.13
2022-08-17T20:41:20.827Z,37.07
2022-08-17T20:44:04.034Z,37.15
2022-08-17T20:46:40.386Z,36.89
2022-08-17T20:49:11.247Z,36.94
2022-08-17T20:52:13.551Z,37.21
2022-08-17T20:54:54.696Z,37.45
2022-08-17T20:57:37.531Z,37.17
2022-08-17T21:00:28.134Z,37.09
2022-08-17T21:03:23.428Z,37.03
2022-08-17T21:06:15.406Z,37.36
2022-08-17T21:09:27.709Z,36.77
2022-08-17T21:12:04.044Z,37.04
2022-08-17T21:14:56.294Z,37.10
2022-08-17T21:18:08.310Z,37.13
2022-08-17T21:20:48.897Z,36.99
2022-08-17T21:23:57.617Z,37.31
2022-08-17T21:26:32.443Z,37.33
2022-08-17T21:29:30.877Z,37.23
2022-08-17T21:32:09.632Z,37.21
2022-08-17T21:34:44.793Z,37.15
2022-08-17T21:37:29.489Z,37.29
2022-08-17T21:40:27.340Z,37.54
2022-08-17T21:43:08.305Z,37.39
2022-08-17T21:45:43.233Z,37.48
2022-08-17T21:48:20.119Z,37.12
2022-08-17T21:51:10.581Z,37.45
2022-08-17T21:53:50.250Z,37.29
2022-08-17T21:56:40.758Z,36.95
2022-08-17T21:59:35.641Z,36.77
2022-08-17T22:02:32.388Z,36.45
2022-08-17T22:05:03.221Z,36.73
2022-08-17T22:07:50.886Z,36.60
2022-08-17T22:10:43.685Z,36.64
2022-08-17T22:13:30.153Z,37.22
2022-08-17T22:16:28.367Z,36.52
2022-08-17T22:18:59.241Z,36.75
2022-08-17T22:21:27.375Z,37.63
2022-08-17T22:24:18.028Z,38.50
2022-08-17T22:27:07.634Z,38.35
2022-08-17T22:29:57.358Z,39.37
2022-08-17T22:32:41.516Z,38.04
2022-08-17T22:35:32.852Z,39.54
2022-08-17T22:38:18.632Z,40.05
2022-08-17T22:40:52.326Z,40.37
2022-08-17T22:43:28.677Z,39.76
2022-08-17T22:46:00.706Z,40.84
2022-08-17T22:48:31.213Z,39.87
2022-08-17T22:51:12.588Z,39.11
2022-08-17T22:54:36.431Z,38.56
2022-08-17T22:57:23.836Z,38.71
2022-08-17T22:59:55.673Z,38.92
2022-08-17T23:02:26.987Z,38.82
2022-08-17T23:05:16.854Z,38.74
2022-08-17T23:07:47.257Z,38.77
2022-08-17T23:10:15.277Z,38.84
2022-08-17T23:12:42.891Z,38.88
2022-08-17T23:15:18.996Z,39.22
2022-08-17T23:17:47.776Z,38.87
2022-08-17T23:20:17.606Z,38.96
2022-08-17T23:22:52.577Z,39.14
2022-08-17T23:25:33.650Z,39.05
2022-08-17T23:28:03.701Z,39.06
2022-08-17T23:30:36.019Z,39.04
2022-08-17T23:33:30.363Z,39.34
2022-08-17T23:35:58.895Z,38.88
2022-08-17T23:38:27.422Z,38.83
2022-08-17T23:40:55.992Z,38.98
2022-08-17T23:43:25.567Z,39.06
2022-08-17T23:45:58.569Z,39.35
2022-08-17T23:48:34.921Z,39.21
2022-08-17T23:51:14.139Z,38.72
2022-08-17T23:53:50.130Z,39.00
2022-08-17T23:56:24.323Z,38.90
2022-08-17T23:58:55.585Z,38.90
